In Rescue
 
Open Full Screen Window  High Contrast Mode
February 24, 2020 5:56 PM EST
Present Weather: Light Rain
Weather Information
Wind Direction
  ---
Wind Speed
  00 kt (0 mph)
Wind Gust
  00 kt (0 mph)
Altimeter
29.81 in
Visibility
10 SM
Temperature
04° C
39° F
Dewpoint
03° C
37° F
Humidity
93%
Sky Condition
Overcast @ 4,200 ft
Broken @ 3,400 ft
VFR

METAR KAXV 242256Z AUTO 00000KT 10SM -RA BKN034 OVC042 04/03 A2981 RMK AO2

FAA Disclaimer: The data displayed is for advisory purposes only and is not to be used for flight planning or operations.